Weser, Texas
Current Conditions -  °F | °C
As of 2:15 AM on Tuesday 21 Oct 2014 (Local Time) from KBEA Reporting Station
Clear Clear  
Wind Chill: 68°   Ceiling: Unl
Heat Index: 68°   Visibility: 10mi
Dew Point: 67°   Wind: 5mph
Humidity: 98%   Direction: 40°NE
Pressure: 29.98"   Gusts: NA
Location:  28.6563°N, 97.4287°W
Report Text: KBEA 210715Z AUTO 04004KT 10SM CLR 20/20 A2998 RMK AO2 T02000197
Loading
Personal Weather Stations






























Interactive Weather Map New forecast layout! Learn more

10-Day Weather Forecast

Advertisements
Track Severe Weather on mobile